Terminal Aerodrome Forecast
Issued by NWS

Home | Current Version | Previous Version | Text Only | Print | Product List | Glossary On
Versions: 1 2 3 4 5 6 7 8 9 10 11 12
000
FTUS46 KLOX 192343
TAFVNY
TAF
KVNY 192343Z 2000/2024 17013KT P6SM SKC
     FM200200 12007KT P6SM SCT250
     FM200900 28004KT P6SM OVC020
     FM201400 34008KT P6SM BKN035
     FM201800 33012KT P6SM SCT040 BKN250
     FM202100 33014G20KT P6SM SCT250=

USA.gov is the U.S. government's official web portal to all federal, state and local government web resources and services.